createdAt,value
2017-01-02T00:00:13.162Z,15.90
2017-01-02T00:01:13.375Z,16.35
2017-01-02T00:02:12.976Z,16.40
2017-01-02T00:03:13.683Z,16.05
2017-01-02T00:04:11.809Z,15.92
2017-01-02T00:05:11.779Z,15.88
2017-01-02T00:06:11.900Z,15.86
2017-01-02T00:07:12.077Z,15.85
2017-01-02T00:08:10.215Z,15.84
2017-01-02T00:09:14.170Z,15.86
2017-01-02T00:10:14.141Z,15.84
2017-01-02T00:11:12.823Z,15.87
2017-01-02T00:12:12.497Z,15.83
2017-01-02T00:13:15.231Z,15.83
2017-01-02T00:14:12.785Z,15.90
2017-01-02T00:15:13.707Z,15.83
2017-01-02T00:16:12.734Z,15.84
2017-01-02T00:17:13.669Z,15.83
2017-01-02T00:18:11.812Z,15.83
2017-01-02T00:19:12.012Z,15.83
2017-01-02T00:20:13.338Z,15.82
2017-01-02T00:21:13.076Z,15.83
2017-01-02T00:22:13.121Z,15.83
2017-01-02T00:23:09.946Z,15.82
2017-01-02T00:24:13.988Z,16.36
2017-01-02T00:25:12.361Z,15.92
2017-01-02T00:26:12.484Z,15.85
2017-01-02T00:27:11.508Z,15.82
2017-01-02T00:28:11.508Z,15.82
2017-01-02T00:29:12.240Z,15.81
2017-01-02T00:30:12.658Z,15.81
2017-01-02T00:31:14.774Z,15.81
2017-01-02T00:32:12.587Z,15.81
2017-01-02T00:33:15.797Z,15.80
2017-01-02T00:34:11.068Z,15.80
2017-01-02T00:35:10.557Z,15.80
2017-01-02T00:36:12.179Z,15.83
2017-01-02T00:37:12.241Z,15.80
2017-01-02T00:38:12.298Z,15.80
2017-01-02T00:39:09.684Z,15.78
2017-01-02T00:40:12.364Z,15.78
2017-01-02T00:41:12.439Z,15.79
2017-01-02T00:42:13.136Z,15.80
2017-01-02T00:43:12.377Z,15.78
2017-01-02T00:44:12.964Z,15.77
2017-01-02T00:45:12.172Z,15.77
2017-01-02T00:46:11.104Z,15.77
2017-01-02T00:47:13.859Z,15.77
2017-01-02T00:48:12.412Z,15.83
2017-01-02T00:49:12.471Z,15.76
2017-01-02T00:50:12.650Z,15.76
2017-01-02T00:51:11.788Z,15.76
2017-01-02T00:52:12.511Z,15.75
2017-01-02T00:53:13.133Z,15.81
2017-01-02T00:54:13.219Z,15.75
2017-01-02T00:55:14.415Z,15.74
2017-01-02T00:56:13.013Z,15.74
2017-01-02T00:57:12.267Z,15.75
2017-01-02T00:58:14.492Z,15.73
2017-01-02T00:59:13.660Z,15.74
2017-01-02T01:00:12.383Z,15.73
2017-01-02T01:01:12.968Z,15.73
2017-01-02T01:02:12.037Z,15.73
2017-01-02T01:03:12.160Z,15.73
2017-01-02T01:04:14.116Z,15.72
2017-01-02T01:05:12.761Z,15.72
2017-01-02T01:06:12.326Z,15.76
2017-01-02T01:07:13.612Z,15.72
2017-01-02T01:08:11.809Z,15.72
2017-01-02T01:09:11.879Z,15.72
2017-01-02T01:10:12.611Z,15.72
2017-01-02T01:11:10.667Z,15.71
2017-01-02T01:12:13.403Z,16.25
2017-01-02T01:13:13.404Z,15.99
2017-01-02T01:14:12.550Z,15.81
2017-01-02T01:15:13.856Z,15.76
2017-01-02T01:16:15.176Z,15.74
2017-01-02T01:17:12.880Z,15.73
2017-01-02T01:18:12.023Z,15.73
2017-01-02T01:19:14.329Z,15.72
2017-01-02T01:20:12.559Z,15.73
2017-01-02T01:21:10.836Z,15.72
2017-01-02T01:22:12.582Z,15.72
2017-01-02T01:23:13.249Z,15.72
2017-01-02T01:24:13.241Z,15.72
2017-01-02T01:25:16.333Z,15.72
2017-01-02T01:26:12.444Z,15.73
2017-01-02T01:27:13.300Z,15.73
2017-01-02T01:28:14.424Z,15.72
2017-01-02T01:29:11.652Z,15.72
2017-01-02T01:30:12.577Z,15.72
2017-01-02T01:31:12.957Z,15.70
2017-01-02T01:32:12.613Z,15.72
2017-01-02T01:33:11.746Z,15.72
2017-01-02T01:34:12.497Z,15.72
2017-01-02T01:35:12.664Z,15.76
2017-01-02T01:36:13.320Z,15.72
2017-01-02T01:37:12.478Z,15.73
2017-01-02T01:38:13.103Z,15.79
2017-01-02T01:39:13.126Z,15.73
2017-01-02T01:40:13.244Z,15.74
2017-01-02T01:41:15.744Z,15.72
2017-01-02T01:42:12.101Z,15.73
2017-01-02T01:43:12.268Z,15.73
2017-01-02T01:44:11.323Z,15.73
2017-01-02T01:45:12.561Z,16.29
2017-01-02T01:46:12.207Z,16.32
2017-01-02T01:47:12.467Z,15.99
2017-01-02T01:48:12.574Z,15.82
2017-01-02T01:49:12.447Z,15.79
2017-01-02T01:50:15.209Z,15.76
2017-01-02T01:51:12.411Z,15.76
2017-01-02T01:52:13.502Z,15.75
2017-01-02T01:53:14.455Z,15.74
2017-01-02T01:54:15.216Z,15.74
2017-01-02T01:55:12.297Z,15.74
2017-01-02T01:56:14.079Z,15.74
2017-01-02T01:57:12.872Z,15.81
2017-01-02T01:58:12.288Z,15.77
2017-01-02T01:59:12.990Z,15.74
2017-01-02T02:00:11.994Z,15.73
2017-01-02T02:01:12.142Z,15.73
2017-01-02T02:02:13.110Z,15.73
2017-01-02T02:03:13.842Z,15.74
2017-01-02T02:04:12.571Z,15.75
2017-01-02T02:05:13.139Z,16.27
2017-01-02T02:06:13.096Z,16.31
2017-01-02T02:07:12.097Z,15.81
2017-01-02T02:08:13.151Z,15.78
2017-01-02T02:09:14.216Z,15.79
2017-01-02T02:10:13.248Z,15.74
2017-01-02T02:11:12.865Z,15.78
2017-01-02T02:12:12.559Z,15.76
2017-01-02T02:13:13.208Z,15.78
2017-01-02T02:14:13.139Z,15.72
2017-01-02T02:15:13.047Z,15.72
2017-01-02T02:16:12.959Z,15.72
2017-01-02T02:17:12.223Z,15.72
2017-01-02T02:18:13.864Z,15.73
2017-01-02T02:19:12.297Z,15.78
2017-01-02T02:20:13.173Z,15.72
2017-01-02T02:21:12.971Z,15.77
2017-01-02T02:22:13.168Z,15.72
2017-01-02T02:23:12.405Z,15.71
2017-01-02T02:24:13.912Z,15.71
2017-01-02T02:25:12.227Z,15.71
2017-01-02T02:26:12.396Z,15.71
2017-01-02T02:27:13.867Z,15.71
2017-01-02T02:28:12.723Z,15.70
2017-01-02T02:29:12.548Z,15.71
2017-01-02T02:30:13.128Z,15.74
2017-01-02T02:31:12.246Z,15.70
2017-01-02T02:32:12.859Z,15.70
2017-01-02T02:33:12.455Z,15.69
2017-01-02T02:34:13.422Z,15.69
2017-01-02T02:35:13.674Z,15.68
2017-01-02T02:36:11.728Z,15.70
2017-01-02T02:37:12.705Z,15.68
2017-01-02T02:38:12.451Z,15.68
2017-01-02T02:39:12.382Z,15.69
2017-01-02T02:40:13.839Z,15.72
2017-01-02T02:41:12.445Z,15.74
2017-01-02T02:42:13.074Z,15.68
2017-01-02T02:43:12.053Z,15.67
2017-01-02T02:44:12.890Z,15.68
2017-01-02T02:45:12.079Z,15.67
2017-01-02T02:46:13.957Z,15.67
2017-01-02T02:47:11.090Z,15.66
2017-01-02T02:48:15.454Z,15.84
2017-01-02T02:49:12.594Z,15.72
2017-01-02T02:50:12.308Z,15.69
2017-01-02T02:51:12.319Z,15.69
2017-01-02T02:52:13.114Z,15.67
2017-01-02T02:53:12.124Z,15.67
2017-01-02T02:54:13.089Z,15.67
2017-01-02T02:55:13.129Z,15.67
2017-01-02T02:56:12.208Z,15.68
2017-01-02T02:57:12.369Z,15.68
2017-01-02T02:58:12.969Z,15.67
2017-01-02T02:59:12.670Z,15.67
2017-01-02T03:00:11.769Z,15.67
2017-01-02T03:01:12.467Z,15.74
2017-01-02T03:02:12.503Z,15.68
2017-01-02T03:03:12.659Z,15.67
2017-01-02T03:04:11.581Z,15.67
2017-01-02T03:05:13.675Z,15.67
2017-01-02T03:06:12.415Z,15.67
2017-01-02T03:07:13.173Z,15.71
2017-01-02T03:08:12.354Z,15.67
2017-01-02T03:09:12.385Z,15.66
2017-01-02T03:10:12.996Z,15.66
2017-01-02T03:11:12.899Z,15.66
2017-01-02T03:12:11.866Z,15.66
2017-01-02T03:13:11.920Z,15.67
2017-01-02T03:14:11.915Z,15.67
2017-01-02T03:15:13.671Z,15.66
2017-01-02T03:16:12.454Z,15.66
2017-01-02T03:17:12.887Z,15.72
2017-01-02T03:18:11.937Z,15.66
2017-01-02T03:19:12.859Z,15.66
2017-01-02T03:20:13.463Z,15.73
2017-01-02T03:21:13.375Z,15.67
2017-01-02T03:22:13.711Z,15.67
2017-01-02T03:23:12.486Z,15.67
2017-01-02T03:24:12.478Z,15.67
2017-01-02T03:25:14.378Z,15.67
2017-01-02T03:26:11.203Z,15.65
2017-01-02T03:27:12.998Z,15.65
2017-01-02T03:28:12.823Z,15.66
2017-01-02T03:29:12.031Z,15.66
2017-01-02T03:30:13.772Z,15.65
2017-01-02T03:31:12.379Z,15.66
2017-01-02T03:32:13.139Z,15.67
2017-01-02T03:33:12.109Z,15.65
2017-01-02T03:34:12.061Z,15.66
2017-01-02T03:35:12.534Z,15.69
2017-01-02T03:36:13.265Z,15.66
2017-01-02T03:37:13.136Z,15.66
2017-01-02T03:38:12.419Z,15.66
2017-01-02T03:39:12.579Z,15.66
2017-01-02T03:40:13.234Z,15.65
2017-01-02T03:41:12.596Z,15.66
2017-01-02T03:42:12.873Z,15.65
2017-01-02T03:43:11.855Z,15.66
2017-01-02T03:44:12.902Z,15.66
2017-01-02T03:45:11.924Z,15.66
2017-01-02T03:46:12.796Z,15.66
2017-01-02T03:47:11.698Z,15.66
2017-01-02T03:48:11.834Z,15.67
2017-01-02T03:49:11.932Z,15.66
2017-01-02T03:50:13.101Z,15.66
2017-01-02T03:51:12.213Z,15.66
2017-01-02T03:52:12.297Z,15.66
2017-01-02T03:53:12.493Z,15.66
2017-01-02T03:54:12.697Z,15.65
2017-01-02T03:55:13.338Z,15.65
2017-01-02T03:56:13.198Z,15.66
2017-01-02T03:57:12.869Z,15.69
2017-01-02T03:58:10.538Z,15.65
2017-01-02T03:59:12.435Z,15.68
2017-01-02T04:00:13.121Z,15.68
2017-01-02T04:01:12.415Z,15.66
2017-01-02T04:02:13.165Z,15.65
2017-01-02T04:03:12.335Z,15.65
2017-01-02T04:04:13.443Z,15.65
2017-01-02T04:05:13.141Z,15.69
2017-01-02T04:06:13.991Z,15.65
2017-01-02T04:07:11.904Z,15.65
2017-01-02T04:08:13.151Z,15.72
2017-01-02T04:09:12.364Z,15.66
2017-01-02T04:10:13.191Z,15.66
2017-01-02T04:11:13.438Z,15.66
2017-01-02T04:12:12.535Z,15.66
2017-01-02T04:13:12.584Z,15.65
2017-01-02T04:14:13.685Z,15.65
2017-01-02T04:15:12.611Z,15.65
2017-01-02T04:16:10.392Z,15.64
2017-01-02T04:17:15.075Z,16.18
2017-01-02T04:18:13.016Z,16.24
2017-01-02T04:19:13.959Z,16.26
2017-01-02T04:20:11.005Z,16.28
2017-01-02T04:21:12.891Z,15.74
2017-01-02T04:22:12.069Z,15.69
2017-01-02T04:23:12.242Z,15.67
2017-01-02T04:24:14.180Z,15.65
2017-01-02T04:25:13.046Z,15.65
2017-01-02T04:26:12.802Z,15.64
2017-01-02T04:27:13.355Z,15.64
2017-01-02T04:28:13.565Z,15.64
2017-01-02T04:29:13.004Z,15.67
2017-01-02T04:30:12.642Z,15.63
2017-01-02T04:31:12.485Z,15.63
2017-01-02T04:32:13.163Z,15.64
2017-01-02T04:33:15.184Z,15.63
2017-01-02T04:34:12.343Z,15.63
2017-01-02T04:35:12.582Z,15.63
2017-01-02T04:36:13.939Z,15.62
2017-01-02T04:37:12.770Z,15.63
2017-01-02T04:38:11.832Z,15.62
2017-01-02T04:39:11.911Z,15.62
2017-01-02T04:40:11.925Z,15.62
2017-01-02T04:41:12.552Z,15.63
2017-01-02T04:42:12.354Z,15.61
2017-01-02T04:43:13.003Z,15.64
2017-01-02T04:44:12.783Z,15.62
2017-01-02T04:45:13.034Z,15.62
2017-01-02T04:46:12.822Z,15.65
2017-01-02T04:47:12.941Z,16.16
2017-01-02T04:48:12.930Z,16.20
2017-01-02T04:49:12.142Z,15.68
2017-01-02T04:50:12.068Z,15.65
2017-01-02T04:51:12.741Z,15.63
2017-01-02T04:52:11.852Z,15.63
2017-01-02T04:53:12.494Z,15.63
2017-01-02T04:54:13.453Z,15.62
2017-01-02T04:55:13.101Z,15.64
2017-01-02T04:56:12.239Z,15.62
2017-01-02T04:57:12.680Z,15.68
2017-01-02T04:58:13.341Z,15.61
2017-01-02T04:59:12.584Z,15.61
2017-01-02T05:00:11.661Z,15.61
2017-01-02T05:01:12.478Z,15.61
2017-01-02T05:02:13.215Z,15.61
2017-01-02T05:03:12.329Z,15.61
2017-01-02T05:04:12.884Z,15.67
2017-01-02T05:05:12.051Z,15.60
2017-01-02T05:06:11.170Z,15.60
2017-01-02T05:07:12.814Z,16.14
2017-01-02T05:08:12.838Z,15.85
2017-01-02T05:09:16.685Z,15.68
2017-01-02T05:10:12.655Z,15.64
2017-01-02T05:11:11.632Z,15.63
2017-01-02T05:12:12.312Z,15.62
2017-01-02T05:13:12.273Z,15.61
2017-01-02T05:14:12.862Z,15.61
2017-01-02T05:15:13.974Z,15.61
2017-01-02T05:16:12.825Z,15.60
2017-01-02T05:17:11.929Z,15.61
2017-01-02T05:18:10.821Z,15.59
2017-01-02T05:19:12.595Z,16.14
2017-01-02T05:20:11.717Z,16.20
2017-01-02T05:21:13.679Z,16.22
2017-01-02T05:22:12.191Z,15.93
2017-01-02T05:23:12.261Z,15.70
2017-01-02T05:24:12.818Z,15.66
2017-01-02T05:25:16.630Z,15.67
2017-01-02T05:26:17.482Z,16.16
2017-01-02T05:27:16.251Z,16.22
2017-01-02T05:28:12.373Z,16.20
2017-01-02T05:29:12.950Z,16.23
2017-01-02T05:30:13.908Z,15.90
2017-01-02T05:31:12.910Z,15.72
2017-01-02T05:32:11.999Z,15.66
2017-01-02T05:33:11.853Z,15.63
2017-01-02T05:34:12.368Z,15.69
2017-01-02T05:35:12.377Z,15.60
2017-01-02T05:36:12.559Z,15.61
2017-01-02T05:37:11.659Z,15.61
2017-01-02T05:38:09.258Z,15.60
2017-01-02T05:39:12.344Z,15.60
2017-01-02T05:40:12.482Z,15.60
2017-01-02T05:41:13.163Z,15.60
2017-01-02T05:42:13.862Z,15.59
2017-01-02T05:43:12.618Z,15.61
2017-01-02T05:44:12.518Z,15.60
2017-01-02T05:45:12.371Z,15.60
2017-01-02T05:46:12.993Z,15.60
2017-01-02T05:47:12.065Z,15.60
2017-01-02T05:48:12.989Z,15.61
2017-01-02T05:49:12.072Z,15.59
2017-01-02T05:50:12.640Z,15.60
2017-01-02T05:51:11.689Z,15.60
2017-01-02T05:52:10.579Z,15.60
2017-01-02T05:53:13.457Z,15.59
2017-01-02T05:54:13.228Z,15.60
2017-01-02T05:55:13.849Z,15.59
2017-01-02T05:56:12.767Z,15.60
2017-01-02T05:57:11.798Z,15.60
2017-01-02T05:58:12.676Z,15.59
2017-01-02T05:59:11.839Z,15.60
2017-01-02T06:00:12.390Z,15.60
2017-01-02T06:01:12.523Z,15.59
2017-01-02T06:02:10.270Z,15.59
2017-01-02T06:03:13.319Z,15.60
2017-01-02T06:04:12.360Z,15.60
2017-01-02T06:05:12.177Z,15.58
2017-01-02T06:06:12.043Z,15.59
2017-01-02T06:07:12.876Z,15.58
2017-01-02T06:08:12.943Z,15.59
2017-01-02T06:09:13.467Z,15.59
2017-01-02T06:10:14.013Z,16.12
2017-01-02T06:11:12.117Z,16.18
2017-01-02T06:12:12.232Z,16.20
2017-01-02T06:13:12.931Z,15.86
2017-01-02T06:14:12.543Z,15.72
2017-01-02T06:15:12.316Z,15.64
2017-01-02T06:16:12.265Z,15.61
2017-01-02T06:17:13.052Z,15.60
2017-01-02T06:18:12.179Z,15.59
2017-01-02T06:19:12.882Z,15.66
2017-01-02T06:20:11.958Z,15.59
2017-01-02T06:21:13.683Z,15.59
2017-01-02T06:22:13.301Z,15.59
2017-01-02T06:23:12.350Z,15.60
2017-01-02T06:24:12.550Z,15.60
2017-01-02T06:25:14.437Z,15.58
2017-01-02T06:26:12.471Z,15.58
2017-01-02T06:27:12.351Z,15.57
2017-01-02T06:28:12.928Z,15.58
2017-01-02T06:29:12.247Z,15.59
2017-01-02T06:30:12.805Z,15.65
2017-01-02T06:31:12.598Z,15.58
2017-01-02T06:32:12.320Z,15.63
2017-01-02T06:33:15.049Z,15.58
2017-01-02T06:34:12.873Z,15.58
2017-01-02T06:35:12.147Z,15.58
2017-01-02T06:36:11.980Z,15.57
2017-01-02T06:37:12.656Z,15.59
2017-01-02T06:38:12.203Z,15.57
2017-01-02T06:39:12.592Z,15.61
2017-01-02T06:40:12.682Z,15.58
2017-01-02T06:41:11.839Z,15.57
2017-01-02T06:42:12.488Z,15.61
2017-01-02T06:43:12.605Z,16.12
2017-01-02T06:44:11.921Z,15.64
2017-01-02T06:45:12.696Z,15.60
2017-01-02T06:46:12.983Z,15.60
2017-01-02T06:47:12.771Z,15.59
2017-01-02T06:48:13.805Z,15.58
2017-01-02T06:49:11.711Z,15.58
2017-01-02T06:50:10.809Z,15.57
2017-01-02T06:51:11.670Z,16.12
2017-01-02T06:52:12.665Z,16.18
2017-01-02T06:53:11.796Z,16.20
2017-01-02T06:54:12.004Z,16.21
2017-01-02T06:55:12.128Z,16.22
2017-01-02T06:56:12.229Z,16.22
2017-01-02T06:57:12.287Z,15.91
2017-01-02T06:58:11.239Z,15.68
2017-01-02T06:59:12.828Z,16.16
2017-01-02T07:00:12.485Z,16.21
2017-01-02T07:01:13.153Z,16.20
2017-01-02T07:02:12.404Z,16.20
2017-01-02T07:03:13.065Z,16.21
2017-01-02T07:04:12.687Z,16.21
2017-01-02T07:05:11.641Z,16.21
2017-01-02T07:06:11.659Z,15.68
2017-01-02T07:07:11.662Z,15.64
2017-01-02T07:08:13.497Z,15.60
2017-01-02T07:09:10.250Z,15.59
2017-01-02T07:10:12.492Z,15.58
2017-01-02T07:11:15.500Z,15.56
2017-01-02T07:12:12.638Z,15.56
2017-01-02T07:13:12.777Z,15.57
2017-01-02T07:14:12.600Z,15.56
2017-01-02T07:15:12.292Z,15.57
2017-01-02T07:16:13.420Z,15.56
2017-01-02T07:17:13.108Z,15.58
2017-01-02T07:18:12.701Z,15.60
2017-01-02T07:19:11.655Z,15.57
2017-01-02T07:20:13.385Z,15.55
2017-01-02T07:21:12.853Z,15.59
2017-01-02T07:22:11.915Z,15.55
2017-01-02T07:23:11.927Z,15.55
2017-01-02T07:24:12.750Z,15.55
2017-01-02T07:25:11.798Z,15.56
2017-01-02T07:26:12.556Z,15.55
2017-01-02T07:27:12.531Z,15.55
2017-01-02T07:28:13.426Z,15.56
2017-01-02T07:29:12.521Z,15.55
2017-01-02T07:30:12.689Z,15.55
2017-01-02T07:31:12.288Z,15.55
2017-01-02T07:32:14.402Z,15.55
2017-01-02T07:33:09.573Z,15.54
2017-01-02T07:34:12.361Z,15.55
2017-01-02T07:35:12.335Z,15.54
2017-01-02T07:36:13.171Z,15.55
2017-01-02T07:37:12.233Z,15.55
2017-01-02T07:38:12.480Z,15.55
2017-01-02T07:39:12.999Z,15.58
2017-01-02T07:40:13.037Z,15.56
2017-01-02T07:41:13.966Z,15.55
2017-01-02T07:42:11.840Z,15.55
2017-01-02T07:43:12.246Z,15.60
2017-01-02T07:44:12.496Z,15.55
2017-01-02T07:45:13.038Z,15.57
2017-01-02T07:46:12.978Z,15.55
2017-01-02T07:47:13.261Z,15.56
2017-01-02T07:48:12.290Z,15.55
2017-01-02T07:49:14.428Z,15.55
2017-01-02T07:50:13.243Z,15.59
2017-01-02T07:51:16.098Z,15.54
2017-01-02T07:52:11.156Z,15.54
2017-01-02T07:53:14.016Z,15.69
2017-01-02T07:54:13.987Z,15.58
2017-01-02T07:55:12.135Z,15.56
2017-01-02T07:56:12.410Z,15.55
2017-01-02T07:57:12.556Z,15.55
2017-01-02T07:58:13.138Z,15.54
2017-01-02T07:59:12.971Z,15.57
2017-01-02T08:00:12.146Z,15.54
2017-01-02T08:01:12.726Z,15.57
2017-01-02T08:02:11.757Z,15.54
2017-01-02T08:03:11.860Z,15.54
2017-01-02T08:04:12.695Z,15.53
2017-01-02T08:05:12.341Z,15.59
2017-01-02T08:06:12.818Z,15.57
2017-01-02T08:07:11.910Z,15.54
2017-01-02T08:08:12.681Z,15.53
2017-01-02T08:09:12.437Z,15.54
2017-01-02T08:10:12.608Z,15.54
2017-01-02T08:11:12.757Z,15.54
2017-01-02T08:12:11.855Z,15.54
2017-01-02T08:13:12.672Z,15.53
2017-01-02T08:14:12.180Z,15.54
2017-01-02T08:15:12.264Z,15.54
2017-01-02T08:16:13.008Z,15.54
2017-01-02T08:17:13.986Z,15.53
2017-01-02T08:18:12.017Z,15.53
2017-01-02T08:19:12.072Z,15.53
2017-01-02T08:20:12.798Z,15.52
2017-01-02T08:21:14.618Z,15.53
2017-01-02T08:22:13.253Z,15.53
2017-01-02T08:23:12.536Z,15.53
2017-01-02T08:24:13.200Z,15.53
2017-01-02T08:25:11.546Z,15.51
2017-01-02T08:26:12.907Z,15.53
2017-01-02T08:27:12.611Z,15.53
2017-01-02T08:28:12.425Z,15.52
2017-01-02T08:29:13.027Z,15.58
2017-01-02T08:30:12.120Z,15.54
2017-01-02T08:31:12.236Z,15.53
2017-01-02T08:32:14.546Z,15.53
2017-01-02T08:33:12.456Z,15.54
2017-01-02T08:34:14.262Z,15.52
2017-01-02T08:35:12.919Z,15.58
2017-01-02T08:36:12.412Z,15.54
2017-01-02T08:37:12.924Z,15.57
2017-01-02T08:38:12.122Z,15.55
2017-01-02T08:39:12.944Z,15.53
2017-01-02T08:40:12.886Z,15.54
2017-01-02T08:41:12.636Z,15.54
2017-01-02T08:42:12.320Z,15.58
2017-01-02T08:43:11.516Z,15.54
2017-01-02T08:44:12.563Z,15.54
2017-01-02T08:45:11.506Z,15.53
2017-01-02T08:46:11.786Z,16.08
2017-01-02T08:47:12.431Z,15.77
2017-01-02T08:48:13.181Z,15.62
2017-01-02T08:49:12.346Z,15.58
2017-01-02T08:50:11.168Z,15.55
2017-01-02T08:51:13.170Z,15.55
2017-01-02T08:52:12.856Z,15.54
2017-01-02T08:53:12.781Z,15.53
2017-01-02T08:54:11.845Z,15.53
2017-01-02T08:55:12.065Z,15.53
2017-01-02T08:56:12.141Z,15.53
2017-01-02T08:57:12.785Z,15.58
2017-01-02T08:58:11.861Z,15.53
2017-01-02T08:59:12.460Z,15.53
2017-01-02T09:00:12.514Z,15.53
2017-01-02T09:01:13.142Z,15.55
2017-01-02T09:02:14.348Z,15.53
2017-01-02T09:03:12.400Z,15.52
2017-01-02T09:04:12.918Z,15.63
2017-01-02T09:05:12.075Z,16.06
2017-01-02T09:06:11.969Z,16.13
2017-01-02T09:07:10.875Z,16.15
2017-01-02T09:08:12.511Z,15.87
2017-01-02T09:09:12.514Z,15.64
2017-01-02T09:10:12.938Z,15.59
2017-01-02T09:11:12.725Z,15.84
2017-01-02T09:12:14.818Z,15.60
2017-01-02T09:13:12.414Z,15.57
2017-01-02T09:14:13.125Z,15.55
2017-01-02T09:15:12.881Z,15.57
2017-01-02T09:16:13.673Z,15.72
2017-01-02T09:17:12.428Z,15.59
2017-01-02T09:18:12.584Z,15.56
2017-01-02T09:19:13.213Z,15.54
2017-01-02T09:20:12.346Z,15.54
2017-01-02T09:21:12.521Z,15.55
2017-01-02T09:22:12.806Z,15.54
2017-01-02T09:23:11.824Z,15.54
2017-01-02T09:24:14.869Z,15.53
2017-01-02T09:25:12.789Z,15.53
2017-01-02T09:26:11.540Z,15.53
2017-01-02T09:27:11.853Z,15.53
2017-01-02T09:28:12.109Z,15.54
2017-01-02T09:29:12.002Z,15.54
2017-01-02T09:30:10.530Z,15.52
2017-01-02T09:31:11.733Z,15.54
2017-01-02T09:32:12.036Z,15.53
2017-01-02T09:33:12.094Z,15.53
2017-01-02T09:34:12.115Z,15.52
2017-01-02T09:35:12.151Z,15.53
2017-01-02T09:36:12.995Z,15.55
2017-01-02T09:37:11.922Z,15.53
2017-01-02T09:38:12.133Z,15.53
2017-01-02T09:39:13.060Z,15.53
2017-01-02T09:40:11.002Z,15.52
2017-01-02T09:41:12.596Z,16.06
2017-01-02T09:42:10.474Z,15.57
2017-01-02T09:43:11.680Z,15.56
2017-01-02T09:44:10.780Z,15.53
2017-01-02T09:45:12.503Z,15.54
2017-01-02T09:46:10.612Z,15.53
2017-01-02T09:47:11.859Z,15.53
2017-01-02T09:48:12.172Z,15.53
2017-01-02T09:49:12.151Z,15.52
2017-01-02T09:50:12.117Z,15.53
2017-01-02T09:51:12.911Z,15.53
2017-01-02T09:52:12.548Z,15.52
2017-01-02T09:53:11.283Z,15.52
2017-01-02T09:54:12.414Z,15.53
2017-01-02T09:55:13.303Z,15.53
2017-01-02T09:56:13.001Z,15.55
2017-01-02T09:57:13.814Z,15.52
2017-01-02T09:58:10.330Z,15.52
2017-01-02T09:59:13.366Z,15.54
2017-01-02T10:00:14.287Z,15.52
2017-01-02T10:01:14.498Z,15.53
2017-01-02T10:02:13.335Z,15.52
2017-01-02T10:03:15.441Z,15.52
2017-01-02T10:04:09.941Z,15.52
2017-01-02T10:05:12.533Z,15.52
2017-01-02T10:06:13.271Z,15.52
2017-01-02T10:07:14.070Z,15.52
2017-01-02T10:08:12.160Z,15.52
2017-01-02T10:09:12.979Z,15.52
2017-01-02T10:10:13.574Z,16.05
2017-01-02T10:11:12.071Z,16.11
2017-01-02T10:12:12.593Z,16.14
2017-01-02T10:13:10.441Z,15.62
2017-01-02T10:14:12.322Z,15.57
2017-01-02T10:15:12.803Z,15.60
2017-01-02T10:16:13.702Z,15.53
2017-01-02T10:17:12.392Z,15.54
2017-01-02T10:18:13.090Z,15.52
2017-01-02T10:19:12.238Z,15.53
2017-01-02T10:20:13.900Z,15.52
2017-01-02T10:21:12.012Z,15.52
2017-01-02T10:22:10.780Z,15.51
2017-01-02T10:23:12.537Z,15.51
2017-01-02T10:24:12.929Z,15.55
2017-01-02T10:25:12.023Z,15.51
2017-01-02T10:26:12.087Z,15.52
2017-01-02T10:27:13.940Z,15.52
2017-01-02T10:28:11.973Z,15.51
2017-01-02T10:29:12.150Z,15.51
2017-01-02T10:30:12.250Z,15.52
2017-01-02T10:31:12.375Z,15.51
2017-01-02T10:32:14.523Z,15.52
2017-01-02T10:33:12.457Z,15.52
2017-01-02T10:34:12.039Z,15.50
2017-01-02T10:35:12.799Z,15.53
2017-01-02T10:36:11.881Z,15.55
2017-01-02T10:37:12.119Z,15.55
2017-01-02T10:38:12.090Z,15.54
2017-01-02T10:39:12.780Z,15.53
2017-01-02T10:40:11.676Z,15.54
2017-01-02T10:41:11.685Z,15.53
2017-01-02T10:42:13.548Z,15.51
2017-01-02T10:43:12.659Z,15.56
2017-01-02T10:44:12.294Z,15.60
2017-01-02T10:45:13.954Z,15.52
2017-01-02T10:46:14.059Z,15.53
2017-01-02T10:47:12.125Z,15.52
2017-01-02T10:48:14.422Z,15.52
2017-01-02T10:49:11.664Z,15.51
2017-01-02T10:50:11.792Z,15.52
2017-01-02T10:51:11.046Z,15.51
2017-01-02T10:52:10.930Z,15.51
2017-01-02T10:53:11.031Z,15.51
2017-01-02T10:54:12.323Z,15.52
2017-01-02T10:55:13.118Z,15.51
2017-01-02T10:56:13.849Z,15.52
2017-01-02T10:57:11.990Z,15.52
2017-01-02T10:58:13.051Z,15.52
2017-01-02T10:59:13.111Z,15.51
2017-01-02T11:00:12.356Z,15.52
2017-01-02T11:01:12.433Z,15.51
2017-01-02T11:02:11.395Z,15.51
2017-01-02T11:03:12.605Z,15.51
2017-01-02T11:04:12.247Z,15.51
2017-01-02T11:05:16.092Z,15.51
2017-01-02T11:06:12.718Z,15.51
2017-01-02T11:07:12.591Z,15.52
2017-01-02T11:08:11.758Z,15.52
2017-01-02T11:09:12.529Z,15.53
2017-01-02T11:10:12.691Z,14.80
2017-01-02T11:11:12.335Z,12.24
2017-01-02T11:12:12.395Z,10.39
2017-01-02T11:13:13.923Z,9.53
2017-01-02T11:14:15.151Z,8.96
2017-01-02T11:15:13.192Z,8.74
2017-01-02T11:16:13.051Z,8.64
2017-01-02T11:17:12.672Z,8.88
2017-01-02T11:18:12.400Z,9.02
2017-01-02T11:19:12.345Z,8.82
2017-01-02T11:20:13.461Z,8.72
2017-01-02T11:21:12.609Z,8.44
2017-01-02T11:22:12.261Z,8.16
2017-01-02T11:23:13.118Z,8.14
2017-01-02T11:24:09.605Z,7.88
2017-01-02T11:25:12.340Z,7.99
2017-01-02T11:26:11.337Z,8.26
2017-01-02T11:27:12.437Z,9.73
2017-01-02T11:28:12.452Z,10.47
2017-01-02T11:29:14.083Z,11.13
2017-01-02T11:30:12.156Z,11.65
2017-01-02T11:31:14.150Z,11.77
2017-01-02T11:32:12.580Z,11.94
2017-01-02T11:33:11.860Z,12.21
2017-01-02T11:34:11.979Z,12.48
2017-01-02T11:35:12.663Z,12.79
2017-01-02T11:36:12.088Z,13.03
2017-01-02T11:37:13.128Z,13.20
2017-01-02T11:38:12.969Z,13.42
2017-01-02T11:39:12.239Z,13.59
2017-01-02T11:40:12.458Z,13.76
2017-01-02T11:41:11.568Z,13.87
2017-01-02T11:42:13.883Z,14.02
2017-01-02T11:43:12.570Z,14.13
2017-01-02T11:44:12.537Z,14.26
2017-01-02T11:45:12.739Z,14.39
2017-01-02T11:46:12.298Z,14.53
2017-01-02T11:47:13.042Z,14.54
2017-01-02T11:48:12.743Z,14.59
2017-01-02T11:49:11.859Z,14.69
2017-01-02T11:50:12.600Z,14.76
2017-01-02T11:51:11.740Z,14.80
2017-01-02T11:52:11.711Z,14.86
2017-01-02T11:53:11.822Z,14.92
2017-01-02T11:54:11.958Z,14.99
2017-01-02T11:55:12.965Z,15.05
2017-01-02T11:56:11.950Z,15.10
2017-01-02T11:57:13.881Z,15.16
2017-01-02T11:58:11.742Z,15.20
2017-01-02T11:59:12.239Z,15.31
2017-01-02T12:00:13.161Z,15.29
2017-01-02T12:01:12.380Z,15.35
2017-01-02T12:02:12.303Z,15.41
2017-01-02T12:03:13.091Z,15.45
2017-01-02T12:04:12.697Z,15.46
2017-01-02T12:05:12.993Z,15.50
2017-01-02T12:06:09.264Z,15.55
2017-01-02T12:07:15.588Z,15.59
2017-01-02T12:08:13.923Z,15.60
2017-01-02T12:09:13.981Z,15.62
2017-01-02T12:10:15.053Z,15.67
2017-01-02T12:11:12.707Z,15.75
2017-01-02T12:12:13.566Z,15.73
2017-01-02T12:13:13.237Z,15.78
2017-01-02T12:14:14.912Z,15.80
2017-01-02T12:15:12.777Z,15.85
2017-01-02T12:16:13.211Z,15.89
2017-01-02T12:17:11.871Z,15.89
2017-01-02T12:18:15.300Z,15.92
2017-01-02T12:19:13.938Z,15.99
2017-01-02T12:20:12.299Z,16.01
2017-01-02T12:21:14.958Z,16.02
2017-01-02T12:22:13.233Z,16.05
2017-01-02T12:23:12.421Z,16.06
2017-01-02T12:24:15.643Z,16.07
2017-01-02T12:25:12.767Z,16.08
2017-01-02T12:26:12.788Z,16.13
2017-01-02T12:27:12.756Z,16.13
2017-01-02T12:28:13.121Z,16.13
2017-01-02T12:29:12.084Z,16.13
2017-01-02T12:30:13.172Z,16.19
2017-01-02T12:31:13.626Z,16.22
2017-01-02T12:32:13.212Z,16.22
2017-01-02T12:33:15.572Z,16.22
2017-01-02T12:34:11.592Z,16.21
2017-01-02T12:35:12.368Z,16.25
2017-01-02T12:36:13.236Z,16.24
2017-01-02T12:37:14.010Z,16.24
2017-01-02T12:38:13.441Z,16.25
2017-01-02T12:39:12.760Z,16.29
2017-01-02T12:40:14.044Z,16.21
2017-01-02T12:41:12.809Z,16.19
2017-01-02T12:42:13.339Z,16.15
2017-01-02T12:43:12.336Z,16.14
2017-01-02T12:44:14.029Z,16.13
2017-01-02T12:45:12.440Z,16.14
2017-01-02T12:46:12.686Z,16.13
2017-01-02T12:47:12.689Z,16.14
2017-01-02T12:48:13.827Z,16.13
2017-01-02T12:49:12.244Z,16.14
2017-01-02T12:50:13.482Z,16.18
2017-01-02T12:51:12.901Z,16.19
2017-01-02T12:52:11.999Z,16.14
2017-01-02T12:53:12.044Z,16.14